createdAt,value
2022-11-20T00:01:39.463Z,15.93
2022-11-20T00:04:11.251Z,16.03
2022-11-20T00:06:39.425Z,14.63
2022-11-20T00:09:07.778Z,13.57
2022-11-20T00:11:36.013Z,14.13
2022-11-20T00:14:05.270Z,15.07
2022-11-20T00:16:35.220Z,14.00
2022-11-20T00:19:03.606Z,13.93
2022-11-20T00:21:34.014Z,14.10
2022-11-20T00:24:02.219Z,17.33
2022-11-20T00:26:31.509Z,15.10
2022-11-20T00:29:01.592Z,14.87
2022-11-20T00:31:31.173Z,14.43
2022-11-20T00:34:00.375Z,15.47
2022-11-20T00:36:30.212Z,16.27
2022-11-20T00:39:01.081Z,14.50
2022-11-20T00:41:30.918Z,15.40
2022-11-20T00:43:59.884Z,14.27
2022-11-20T00:46:29.632Z,16.43
2022-11-20T00:48:58.359Z,15.10
2022-11-20T00:51:28.903Z,14.63
2022-11-20T00:54:01.293Z,13.27
2022-11-20T00:56:32.688Z,15.20
2022-11-20T00:59:03.251Z,14.70
2022-11-20T01:01:31.790Z,17.83
2022-11-20T01:04:02.348Z,15.83
2022-11-20T01:06:33.304Z,14.83
2022-11-20T01:09:05.066Z,14.37
2022-11-20T01:11:36.412Z,16.03
2022-11-20T01:14:06.335Z,16.63
2022-11-20T01:16:38.427Z,19.10
2022-11-20T01:19:09.443Z,18.70
2022-11-20T01:21:39.232Z,14.77
2022-11-20T01:24:13.131Z,16.47
2022-11-20T01:26:44.814Z,17.53
2022-11-20T01:29:21.082Z,16.23
2022-11-20T01:31:50.336Z,16.77
2022-11-20T01:34:20.502Z,17.37
2022-11-20T01:36:49.481Z,16.43
2022-11-20T01:39:22.767Z,15.57
2022-11-20T01:42:10.493Z,16.03
2022-11-20T01:44:55.471Z,18.13
2022-11-20T01:47:29.585Z,18.13
2022-11-20T01:50:01.948Z,16.30
2022-11-20T01:52:35.035Z,19.30
2022-11-20T01:55:09.912Z,16.40
2022-11-20T01:57:39.811Z,15.80
2022-11-20T02:00:10.807Z,17.33
2022-11-20T02:02:41.429Z,14.67
2022-11-20T02:05:19.631Z,14.63
2022-11-20T02:07:49.319Z,14.57
2022-11-20T02:10:19.429Z,15.77
2022-11-20T02:13:05.331Z,15.53
2022-11-20T02:15:35.378Z,15.60
2022-11-20T02:18:04.811Z,18.23
2022-11-20T02:20:32.978Z,16.00
2022-11-20T02:23:07.684Z,16.57
2022-11-20T02:25:44.808Z,14.97
2022-11-20T02:28:14.743Z,16.30
2022-11-20T02:30:42.881Z,15.70
2022-11-20T02:33:11.397Z,15.83
2022-11-20T02:35:48.641Z,18.47
2022-11-20T02:38:18.471Z,17.17
2022-11-20T02:40:52.637Z,17.80
2022-11-20T02:43:22.807Z,16.83
2022-11-20T02:45:52.593Z,16.20
2022-11-20T02:48:22.965Z,16.27
2022-11-20T02:50:54.569Z,16.30
2022-11-20T02:53:23.071Z,14.10
2022-11-20T02:55:53.003Z,16.10
2022-11-20T02:58:21.087Z,15.20
2022-11-20T03:00:49.569Z,17.07
2022-11-20T03:03:18.250Z,14.73
2022-11-20T03:05:46.339Z,16.33
2022-11-20T03:08:15.030Z,15.97
2022-11-20T03:10:43.520Z,17.60
2022-11-20T03:13:13.545Z,17.90
2022-11-20T03:15:41.846Z,16.00
2022-11-20T03:18:10.226Z,16.33
2022-11-20T03:20:38.387Z,14.87
2022-11-20T03:23:06.545Z,17.10
2022-11-20T03:25:35.099Z,16.73
2022-11-20T03:28:04.752Z,18.03
2022-11-20T03:30:34.975Z,17.47
2022-11-20T03:33:03.119Z,17.83
2022-11-20T03:35:31.353Z,18.37
2022-11-20T03:38:00.243Z,17.97
2022-11-20T03:40:28.375Z,17.00
2022-11-20T03:42:56.523Z,17.83
2022-11-20T03:45:25.194Z,17.63
2022-11-20T03:47:55.063Z,21.67
2022-11-20T03:50:23.502Z,19.73
2022-11-20T03:52:51.887Z,17.47
2022-11-20T03:55:20.533Z,15.90
2022-11-20T03:57:49.072Z,16.43
2022-11-20T04:00:18.167Z,16.03
2022-11-20T04:02:46.537Z,15.67
2022-11-20T04:05:16.769Z,16.80
2022-11-20T04:07:45.206Z,18.57
2022-11-20T04:10:13.735Z,18.27
2022-11-20T04:12:42.159Z,18.50
2022-11-20T04:15:11.196Z,18.10
2022-11-20T04:17:39.488Z,17.60
2022-11-20T04:20:09.227Z,18.33
2022-11-20T04:22:39.714Z,17.70
2022-11-20T04:25:08.574Z,19.40
2022-11-20T04:27:36.667Z,20.03
2022-11-20T04:30:05.981Z,20.23
2022-11-20T04:32:35.145Z,26.53
2022-11-20T04:35:03.642Z,21.40
2022-11-20T04:37:31.930Z,20.20
2022-11-20T04:40:03.084Z,19.87
2022-11-20T04:42:31.465Z,21.03
2022-11-20T04:45:00.811Z,18.27
2022-11-20T04:47:29.245Z,18.03
2022-11-20T04:49:57.920Z,17.53
2022-11-20T04:52:29.040Z,23.23
2022-11-20T04:55:00.351Z,21.03
2022-11-20T04:57:29.959Z,18.57
2022-11-20T04:59:58.960Z,19.80
2022-11-20T05:02:27.783Z,19.60
2022-11-20T05:04:56.614Z,22.23
2022-11-20T05:07:26.042Z,32.93
2022-11-20T05:09:54.197Z,34.73
2022-11-20T05:12:22.348Z,20.03
2022-11-20T05:14:52.343Z,20.37
2022-11-20T05:17:20.716Z,18.03
2022-11-20T05:19:52.952Z,16.97
2022-11-20T05:22:23.890Z,20.73
2022-11-20T05:24:52.084Z,19.30
2022-11-20T05:27:20.800Z,17.53
2022-11-20T05:29:49.087Z,18.83
2022-11-20T05:32:18.928Z,19.73
2022-11-20T05:34:47.395Z,18.13
2022-11-20T05:37:15.876Z,21.13
2022-11-20T05:39:44.038Z,18.53
2022-11-20T05:42:29.622Z,19.40
2022-11-20T05:44:57.967Z,22.37
2022-11-20T05:47:28.004Z,18.10
2022-11-20T05:49:58.043Z,17.80
2022-11-20T05:52:27.230Z,18.17
2022-11-20T05:54:55.894Z,21.67
2022-11-20T05:57:25.151Z,22.37
2022-11-20T05:59:53.276Z,18.10
2022-11-20T06:02:21.936Z,18.83
2022-11-20T06:04:51.707Z,23.57
2022-11-20T06:07:19.865Z,19.77
2022-11-20T06:09:48.166Z,19.23
2022-11-20T06:12:16.734Z,20.00
2022-11-20T06:14:45.018Z,19.07
2022-11-20T06:17:15.472Z,17.23
2022-11-20T06:19:46.232Z,21.13
2022-11-20T06:22:16.558Z,20.07
2022-11-20T06:24:47.813Z,20.57
2022-11-20T06:27:16.030Z,20.67
2022-11-20T06:29:44.715Z,20.30
2022-11-20T06:32:14.510Z,21.03
2022-11-20T06:34:43.124Z,18.53
2022-11-20T06:37:15.761Z,20.50
2022-11-20T06:39:43.837Z,19.77
2022-11-20T06:42:12.136Z,21.43
2022-11-20T06:44:40.506Z,20.27
2022-11-20T06:47:08.955Z,19.80
2022-11-20T06:49:39.522Z,21.07
2022-11-20T06:52:07.611Z,19.70
2022-11-20T06:54:37.734Z,18.63
2022-11-20T06:57:06.019Z,21.23
2022-11-20T06:59:34.472Z,20.53
2022-11-20T07:02:04.982Z,21.00
2022-11-20T07:04:33.095Z,19.37
2022-11-20T07:07:05.374Z,22.53
2022-11-20T07:09:33.922Z,19.13
2022-11-20T07:12:03.829Z,20.40
2022-11-20T07:14:31.934Z,21.10
2022-11-20T07:17:00.393Z,22.10
2022-11-20T07:19:28.720Z,20.63
2022-11-20T07:21:57.148Z,21.33
2022-11-20T07:24:25.888Z,19.80
2022-11-20T07:27:02.037Z,20.63
2022-11-20T07:29:32.114Z,23.70
2022-11-20T07:32:00.679Z,22.70
2022-11-20T07:34:29.131Z,22.10
2022-11-20T07:36:57.713Z,18.87
2022-11-20T07:39:25.931Z,22.37
2022-11-20T07:41:54.436Z,21.13
2022-11-20T07:44:23.580Z,23.40
2022-11-20T07:46:53.315Z,25.00
2022-11-20T07:49:21.748Z,20.70
2022-11-20T07:51:52.738Z,22.33
2022-11-20T07:54:21.081Z,24.10
2022-11-20T07:56:49.779Z,26.60
2022-11-20T07:59:18.348Z,27.83
2022-11-20T08:01:47.320Z,26.40
2022-11-20T08:04:17.866Z,29.47
2022-11-20T08:06:46.316Z,32.10
2022-11-20T08:09:14.674Z,35.70
2022-11-20T08:12:00.341Z,25.90
2022-11-20T08:14:29.878Z,22.43
2022-11-20T08:16:58.230Z,23.47
2022-11-20T08:19:28.496Z,25.93
2022-11-20T08:21:57.825Z,24.53
2022-11-20T08:24:27.545Z,26.50
2022-11-20T08:26:59.884Z,26.80
2022-11-20T08:29:29.331Z,26.87
2022-11-20T08:31:58.019Z,25.60
2022-11-20T08:34:27.972Z,25.43
2022-11-20T08:36:56.526Z,25.43
2022-11-20T08:39:24.850Z,27.10
2022-11-20T08:41:53.402Z,27.77
2022-11-20T08:44:21.856Z,28.97
2022-11-20T08:46:50.644Z,29.03
2022-11-20T08:49:19.232Z,28.43
2022-11-20T08:51:52.808Z,31.00
2022-11-20T08:54:23.117Z,36.70
2022-11-20T08:56:51.455Z,29.53
2022-11-20T08:59:43.403Z,31.13
2022-11-20T09:02:08.688Z,34.90
2022-11-20T09:04:37.286Z,32.47
2022-11-20T09:07:07.787Z,33.57
2022-11-20T09:09:36.401Z,31.17
2022-11-20T09:12:04.755Z,34.70
2022-11-20T09:14:33.366Z,31.93
2022-11-20T09:17:02.551Z,32.30
2022-11-20T09:19:38.002Z,32.20
2022-11-20T09:22:07.637Z,34.70
2022-11-20T09:24:36.266Z,32.77
2022-11-20T09:27:07.492Z,35.13
2022-11-20T09:29:35.817Z,32.53
2022-11-20T09:32:04.511Z,36.60
2022-11-20T09:34:33.257Z,36.10
2022-11-20T09:37:06.410Z,33.37
2022-11-20T09:39:40.253Z,33.60
2022-11-20T09:42:23.239Z,34.87
2022-11-20T09:45:03.217Z,35.80
2022-11-20T09:47:49.705Z,34.83
2022-11-20T09:50:30.108Z,33.47
2022-11-20T09:53:13.880Z,31.73
2022-11-20T09:55:44.239Z,33.13
2022-11-20T09:58:25.026Z,29.23
2022-11-20T10:00:57.587Z,27.73
2022-11-20T10:03:39.994Z,24.03
2022-11-20T10:06:14.934Z,24.57
2022-11-20T10:08:47.411Z,25.17
2022-11-20T10:11:25.848Z,27.60
2022-11-20T10:14:09.268Z,23.70
2022-11-20T10:16:46.727Z,24.97
2022-11-20T10:19:32.964Z,18.93
2022-11-20T10:22:16.013Z,16.77
2022-11-20T10:24:55.790Z,18.77
2022-11-20T10:28:00.380Z,24.00
2022-11-20T10:30:31.312Z,17.83
2022-11-20T10:33:06.993Z,20.70
2022-11-20T10:35:42.706Z,25.60
2022-11-20T10:38:19.785Z,20.87
2022-11-20T10:40:51.597Z,18.77
2022-11-20T10:43:28.195Z,15.10
2022-11-20T10:46:03.220Z,17.13
2022-11-20T10:48:35.563Z,17.57
2022-11-20T10:51:17.342Z,18.43
2022-11-20T10:53:57.534Z,19.27
2022-11-20T10:56:32.478Z,18.47
2022-11-20T10:59:25.482Z,23.43
2022-11-20T11:01:57.076Z,21.03
2022-11-20T11:04:39.330Z,18.83
2022-11-20T11:07:15.676Z,19.10
2022-11-20T11:09:49.176Z,19.30
2022-11-20T11:12:17.662Z,17.83
2022-11-20T11:14:50.023Z,18.50
2022-11-20T11:17:25.912Z,18.83
2022-11-20T11:20:06.708Z,28.23
2022-11-20T11:22:37.193Z,46.83
2022-11-20T11:25:06.748Z,43.33
2022-11-20T11:27:35.029Z,20.00
2022-11-20T11:30:18.063Z,21.03
2022-11-20T11:32:46.887Z,26.37
2022-11-20T11:35:27.184Z,22.80
2022-11-20T11:38:05.542Z,21.30
2022-11-20T11:40:36.552Z,21.00
2022-11-20T11:43:31.858Z,17.67
2022-11-20T11:46:07.490Z,18.53
2022-11-20T11:48:35.964Z,22.13
2022-11-20T11:51:04.163Z,20.77
2022-11-20T11:53:33.664Z,21.23
2022-11-20T11:56:10.766Z,21.70
2022-11-20T11:58:48.045Z,23.43
2022-11-20T12:01:30.460Z,23.57
2022-11-20T12:04:06.227Z,26.33
2022-11-20T12:06:39.151Z,20.83
2022-11-20T12:09:13.195Z,27.03
2022-11-20T12:11:47.863Z,27.17
2022-11-20T12:14:25.118Z,24.87
2022-11-20T12:16:56.791Z,24.07
2022-11-20T12:19:25.153Z,22.67
2022-11-20T12:22:07.007Z,22.60
2022-11-20T12:24:48.142Z,23.40
2022-11-20T12:27:55.872Z,24.07
2022-11-20T12:30:25.953Z,21.00
2022-11-20T12:33:15.075Z,20.03
2022-11-20T12:36:08.981Z,20.60
2022-11-20T12:39:00.775Z,22.77
2022-11-20T12:42:02.974Z,21.97
2022-11-20T12:45:10.274Z,23.93
2022-11-20T12:47:52.623Z,23.10
2022-11-20T12:50:53.424Z,23.57
2022-11-20T12:53:35.823Z,26.70
2022-11-20T12:56:19.250Z,24.47
2022-11-20T12:58:59.352Z,22.30
2022-11-20T13:01:45.291Z,26.23
2022-11-20T13:04:27.127Z,27.63
2022-11-20T13:06:58.633Z,30.77
2022-11-20T13:09:28.459Z,42.40
2022-11-20T13:12:08.227Z,30.40
2022-11-20T13:14:42.949Z,26.93
2022-11-20T13:17:19.659Z,27.10
2022-11-20T13:19:52.656Z,33.23
2022-11-20T13:22:29.325Z,33.63
2022-11-20T13:24:59.274Z,32.93
2022-11-20T13:27:27.325Z,27.80
2022-11-20T13:30:05.862Z,28.33
2022-11-20T13:32:34.223Z,29.93
2022-11-20T13:35:05.117Z,31.43
2022-11-20T13:37:36.712Z,30.47
2022-11-20T13:40:24.547Z,29.37
2022-11-20T13:43:07.006Z,27.60
2022-11-20T13:45:35.184Z,28.63
2022-11-20T13:48:07.074Z,29.57
2022-11-20T13:50:50.749Z,27.10
2022-11-20T13:53:40.506Z,25.17
2022-11-20T13:56:19.478Z,26.93
2022-11-20T13:58:56.715Z,27.37
2022-11-20T14:01:27.799Z,27.27
2022-11-20T14:04:06.068Z,26.70
2022-11-20T14:06:43.422Z,28.17
2022-11-20T14:09:27.196Z,30.63
2022-11-20T14:11:55.313Z,26.63
2022-11-20T14:14:26.681Z,31.53
2022-11-20T14:17:07.130Z,26.80
2022-11-20T14:19:38.267Z,28.67
2022-11-20T14:22:13.327Z,29.13
2022-11-20T14:24:44.768Z,31.67
2022-11-20T14:27:16.141Z,26.30
2022-11-20T14:29:46.286Z,24.80
2022-11-20T14:32:18.787Z,27.93
2022-11-20T14:34:50.934Z,27.30
2022-11-20T14:37:24.274Z,27.70
2022-11-20T14:39:57.173Z,29.03
2022-11-20T14:42:28.137Z,26.97
2022-11-20T14:45:01.435Z,29.47
2022-11-20T14:47:32.953Z,27.17
2022-11-20T14:50:07.339Z,25.17
2022-11-20T14:52:38.181Z,24.87
2022-11-20T14:55:16.453Z,25.47
2022-11-20T14:57:44.562Z,27.70
2022-11-20T15:00:23.186Z,26.00
2022-11-20T15:02:53.774Z,27.47
2022-11-20T15:05:24.086Z,26.90
2022-11-20T15:07:55.108Z,31.60
2022-11-20T15:10:28.494Z,32.03
2022-11-20T15:13:01.123Z,29.83
2022-11-20T15:15:35.181Z,31.90
2022-11-20T15:18:04.599Z,28.07
2022-11-20T15:20:34.822Z,27.30
2022-11-20T15:23:03.881Z,29.03
2022-11-20T15:25:34.481Z,28.83
2022-11-20T15:28:03.345Z,29.60
2022-11-20T15:30:31.668Z,28.87
2022-11-20T15:33:01.170Z,30.07
2022-11-20T15:35:29.704Z,30.90
2022-11-20T15:37:58.128Z,32.50
2022-11-20T15:40:26.336Z,26.30
2022-11-20T15:43:13.277Z,30.00
2022-11-20T15:45:45.111Z,29.47
2022-11-20T15:48:17.042Z,31.60
2022-11-20T15:50:52.358Z,29.23
2022-11-20T15:53:22.254Z,27.63
2022-11-20T15:55:56.817Z,27.93
2022-11-20T15:58:27.772Z,26.03
2022-11-20T16:00:59.816Z,28.80
2022-11-20T16:03:29.432Z,25.97
2022-11-20T16:06:01.287Z,30.13
2022-11-20T16:08:29.832Z,27.60
2022-11-20T16:10:59.470Z,28.47
2022-11-20T16:13:48.679Z,28.47
2022-11-20T16:16:24.266Z,29.50
2022-11-20T16:18:52.869Z,28.97
2022-11-20T16:21:21.404Z,33.20
2022-11-20T16:23:52.582Z,30.17
2022-11-20T16:26:21.910Z,30.37
2022-11-20T16:28:52.051Z,38.80
2022-11-20T16:31:22.035Z,32.73
2022-11-20T16:33:54.516Z,41.40
2022-11-20T16:36:24.451Z,34.73
2022-11-20T16:38:55.006Z,35.93
2022-11-20T16:41:23.646Z,41.33
2022-11-20T16:43:54.686Z,34.57
2022-11-20T16:46:25.874Z,36.03
2022-11-20T16:49:00.439Z,38.87
2022-11-20T16:51:32.236Z,38.87
2022-11-20T16:54:03.678Z,38.47
2022-11-20T16:56:32.732Z,38.70
2022-11-20T16:59:04.264Z,42.07
2022-11-20T17:01:33.261Z,40.77
2022-11-20T17:04:03.175Z,38.73
2022-11-20T17:06:33.089Z,38.97
2022-11-20T17:09:02.180Z,39.00
2022-11-20T17:11:30.960Z,37.80
2022-11-20T17:14:00.993Z,42.23
2022-11-20T17:16:31.941Z,43.73
2022-11-20T17:19:05.870Z,40.60
2022-11-20T17:21:36.244Z,41.97
2022-11-20T17:24:06.599Z,48.50
2022-11-20T17:26:36.356Z,44.33
2022-11-20T17:29:08.202Z,42.47
2022-11-20T17:31:40.062Z,38.90
2022-11-20T17:34:12.616Z,39.77
2022-11-20T17:36:45.180Z,40.37
2022-11-20T17:39:14.988Z,39.93
2022-11-20T17:41:43.339Z,31.43
2022-11-20T17:44:12.763Z,34.03
2022-11-20T17:46:42.409Z,34.50
2022-11-20T17:49:10.958Z,39.37
2022-11-20T17:51:40.943Z,38.33
2022-11-20T17:54:10.620Z,39.13
2022-11-20T17:56:56.823Z,37.23
2022-11-20T17:59:25.525Z,35.33
2022-11-20T18:01:58.591Z,32.57
2022-11-20T18:04:31.061Z,32.10
2022-11-20T18:06:59.710Z,35.53
2022-11-20T18:09:27.918Z,31.73
2022-11-20T18:11:57.720Z,31.77
2022-11-20T18:14:32.958Z,32.40
2022-11-20T18:17:06.133Z,34.87
2022-11-20T18:19:42.654Z,32.57
2022-11-20T18:22:17.888Z,34.03
2022-11-20T18:24:46.930Z,32.40
2022-11-20T18:27:17.357Z,32.40
2022-11-20T18:29:48.701Z,32.27
2022-11-20T18:32:19.670Z,28.97
2022-11-20T18:34:47.987Z,32.50
2022-11-20T18:37:16.834Z,30.37
2022-11-20T18:39:45.871Z,33.07
2022-11-20T18:42:33.831Z,29.57
2022-11-20T18:45:04.424Z,27.93
2022-11-20T18:47:38.203Z,25.20
2022-11-20T18:50:09.040Z,26.27
2022-11-20T18:52:41.510Z,26.77
2022-11-20T18:55:12.203Z,28.03
2022-11-20T18:57:41.767Z,28.30
2022-11-20T19:00:12.014Z,26.97
2022-11-20T19:02:43.182Z,22.63
2022-11-20T19:05:12.786Z,28.17
2022-11-20T19:07:41.380Z,29.47
2022-11-20T19:10:10.486Z,31.27
2022-11-20T19:12:38.670Z,26.20
2022-11-20T19:15:08.408Z,29.27
2022-11-20T19:17:38.727Z,28.47
2022-11-20T19:20:10.441Z,26.87
2022-11-20T19:22:38.950Z,25.77
2022-11-20T19:25:08.383Z,28.30
2022-11-20T19:27:37.121Z,26.87
2022-11-20T19:30:07.776Z,28.50
2022-11-20T19:32:37.046Z,25.83
2022-11-20T19:35:06.271Z,27.97
2022-11-20T19:37:36.829Z,32.40
2022-11-20T19:40:06.155Z,30.50
2022-11-20T19:42:36.828Z,24.13
2022-11-20T19:45:06.126Z,25.57
2022-11-20T19:48:00.985Z,24.90
2022-11-20T19:50:23.340Z,24.30
2022-11-20T19:52:59.102Z,27.30
2022-11-20T19:55:27.919Z,25.13
2022-11-20T19:57:56.358Z,33.73
2022-11-20T20:00:31.057Z,25.80
2022-11-20T20:03:01.063Z,35.37
2022-11-20T20:05:29.687Z,22.30
2022-11-20T20:08:02.490Z,21.13
2022-11-20T20:10:31.612Z,20.23
2022-11-20T20:13:04.710Z,19.23
2022-11-20T20:15:33.377Z,20.80
2022-11-20T20:18:01.984Z,18.37
2022-11-20T20:20:30.092Z,22.93
2022-11-20T20:23:00.073Z,18.47
2022-11-20T20:25:28.559Z,18.03
2022-11-20T20:27:56.868Z,16.73
2022-11-20T20:30:25.505Z,18.33
2022-11-20T20:32:56.443Z,17.80
2022-11-20T20:35:25.702Z,17.10
2022-11-20T20:37:53.737Z,13.87
2022-11-20T20:40:23.820Z,12.53
2022-11-20T20:42:52.227Z,10.97
2022-11-20T20:45:20.831Z,12.60
2022-11-20T20:47:49.249Z,10.20
2022-11-20T20:50:17.784Z,12.17
2022-11-20T20:52:46.447Z,11.20
2022-11-20T20:55:15.318Z,8.90
2022-11-20T20:57:45.687Z,9.10
2022-11-20T21:00:15.207Z,8.97
2022-11-20T21:02:43.450Z,8.97
2022-11-20T21:05:11.966Z,7.37
2022-11-20T21:08:00.367Z,6.73
2022-11-20T21:10:30.667Z,6.67
2022-11-20T21:13:02.906Z,6.70
2022-11-20T21:15:31.366Z,6.43
2022-11-20T21:18:00.056Z,7.00
2022-11-20T21:20:47.317Z,5.23
2022-11-20T21:23:15.722Z,7.17
2022-11-20T21:25:45.546Z,5.23
2022-11-20T21:28:18.209Z,5.00
2022-11-20T21:30:47.812Z,4.90
2022-11-20T21:33:17.412Z,6.03
2022-11-20T21:35:46.652Z,4.10
2022-11-20T21:38:15.278Z,5.63
2022-11-20T21:40:44.023Z,4.70
2022-11-20T21:43:19.287Z,5.07
2022-11-20T21:45:47.567Z,5.80
2022-11-20T21:48:16.268Z,6.73
2022-11-20T21:50:45.078Z,4.43
2022-11-20T21:53:13.515Z,4.30
2022-11-20T21:55:42.248Z,3.53
2022-11-20T21:58:10.782Z,6.83
2022-11-20T22:00:40.619Z,5.20
2022-11-20T22:03:11.255Z,4.83
2022-11-20T22:05:39.414Z,3.57
2022-11-20T22:08:08.473Z,2.00
2022-11-20T22:10:37.467Z,5.27
2022-11-20T22:13:23.147Z,2.17
2022-11-20T22:16:00.933Z,3.10
2022-11-20T22:18:29.687Z,3.63
2022-11-20T22:20:58.337Z,7.50
2022-11-20T22:23:26.503Z,5.00
2022-11-20T22:25:54.672Z,10.93
2022-11-20T22:28:24.049Z,6.63
2022-11-20T22:30:54.286Z,4.30
2022-11-20T22:33:22.715Z,4.00
2022-11-20T22:35:51.241Z,4.57
2022-11-20T22:38:21.070Z,5.03
2022-11-20T22:40:49.546Z,3.10
2022-11-20T22:43:18.360Z,4.13
2022-11-20T22:45:47.153Z,5.63
2022-11-20T22:48:19.900Z,2.33
2022-11-20T22:50:48.455Z,6.60
2022-11-20T22:53:16.944Z,3.97
2022-11-20T22:55:53.343Z,7.67
2022-11-20T22:58:23.785Z,8.00
2022-11-20T23:00:54.525Z,5.97
2022-11-20T23:03:25.740Z,3.23
2022-11-20T23:05:53.970Z,5.30
2022-11-20T23:08:22.462Z,5.87
2022-11-20T23:10:52.151Z,4.47
2022-11-20T23:13:20.540Z,6.00
2022-11-20T23:15:55.826Z,10.40
2022-11-20T23:18:25.960Z,4.93
2022-11-20T23:20:54.180Z,7.93
2022-11-20T23:23:22.668Z,5.40
2022-11-20T23:25:51.450Z,4.83
2022-11-20T23:28:20.105Z,7.33
2022-11-20T23:30:49.199Z,5.83
2022-11-20T23:33:18.134Z,5.70
2022-11-20T23:35:49.688Z,7.33
2022-11-20T23:38:18.307Z,9.30
2022-11-20T23:40:49.821Z,5.37
2022-11-20T23:43:18.833Z,5.37
2022-11-20T23:45:48.949Z,6.50
2022-11-20T23:48:18.156Z,4.70
2022-11-20T23:50:47.312Z,8.40
2022-11-20T23:53:17.590Z,5.67
2022-11-20T23:55:48.487Z,10.33
2022-11-20T23:58:17.473Z,5.43
